METAR Formatted Surface Weather Observation
Issued by NWS

Home | Current Version | Previous Version | Text Only | Print | Product List | Glossary On
Versions: 1 2 3 4 5 6 7 8 9 10 11 12 13 14 15 16 17 18 19
000
SAUS45 KPSR 302358
MTRFHU
METAR KFHU 302356Z AUTO 31004KT 10SM SCT100 33/06 A3003 RMK AO2
SLP097 T03330056 10344 20311 56009 $



USA.gov is the U.S. government's official web portal to all federal, state and local government web resources and services.